createdAt,value
2019-05-17T00:02:17.591Z,99.90
2019-05-17T00:04:52.017Z,99.90
2019-05-17T00:07:20.478Z,99.90
2019-05-17T00:09:49.313Z,99.90
2019-05-17T00:12:17.919Z,99.90
2019-05-17T00:14:47.303Z,99.90
2019-05-17T00:17:17.322Z,99.90
2019-05-17T00:19:46.527Z,99.90
2019-05-17T00:22:16.706Z,99.90
2019-05-17T00:24:47.541Z,99.90
2019-05-17T00:27:17.218Z,99.90
2019-05-17T00:29:46.497Z,99.90
2019-05-17T00:32:17.036Z,99.90
2019-05-17T00:34:47.030Z,99.90
2019-05-17T00:37:17.400Z,99.90
2019-05-17T00:39:47.159Z,99.90
2019-05-17T00:42:17.009Z,99.90
2019-05-17T00:44:47.411Z,99.90
2019-05-17T00:47:17.157Z,99.90
2019-05-17T00:49:46.532Z,99.90
2019-05-17T00:52:16.733Z,99.90
2019-05-17T00:54:46.929Z,99.90
2019-05-17T00:57:16.617Z,99.90
2019-05-17T00:59:47.378Z,99.90
2019-05-17T01:02:36.355Z,99.90
2019-05-17T01:05:07.456Z,99.90
2019-05-17T01:07:37.744Z,99.90
2019-05-17T01:10:08.556Z,99.90
2019-05-17T01:12:37.092Z,99.90
2019-05-17T01:15:09.894Z,99.90
2019-05-17T01:17:38.369Z,99.90
2019-05-17T01:20:07.887Z,99.90
2019-05-17T01:22:36.786Z,99.90
2019-05-17T01:25:08.730Z,99.90
2019-05-17T01:27:38.199Z,99.90
2019-05-17T01:30:08.492Z,99.90
2019-05-17T01:32:37.598Z,99.90
2019-05-17T01:35:07.645Z,99.90
2019-05-17T01:37:37.055Z,99.90
2019-05-17T01:40:07.075Z,99.90
2019-05-17T01:42:37.395Z,99.90
2019-05-17T01:45:07.704Z,99.90
2019-05-17T01:47:36.853Z,99.90
2019-05-17T01:50:08.167Z,99.90
2019-05-17T01:52:37.072Z,99.90
2019-05-17T01:55:10.396Z,99.90
2019-05-17T01:57:38.973Z,99.90
2019-05-17T02:00:09.717Z,99.90
2019-05-17T02:02:39.829Z,99.90
2019-05-17T02:05:10.125Z,99.90
2019-05-17T02:07:39.422Z,99.90
2019-05-17T02:10:09.673Z,99.90
2019-05-17T02:12:38.180Z,99.90
2019-05-17T02:15:11.065Z,99.90
2019-05-17T02:17:39.719Z,99.90
2019-05-17T02:20:10.846Z,99.90
2019-05-17T02:22:39.456Z,99.90
2019-05-17T02:25:10.444Z,99.90
2019-05-17T02:27:44.394Z,99.90
2019-05-17T02:30:13.998Z,99.90
2019-05-17T02:32:43.798Z,99.90
2019-05-17T02:35:14.769Z,99.90
2019-05-17T02:37:43.942Z,99.90
2019-05-17T02:40:15.066Z,99.90
2019-05-17T02:42:53.549Z,99.90
2019-05-17T02:45:23.376Z,99.90
2019-05-17T02:47:53.756Z,99.90
2019-05-17T02:50:23.376Z,99.90
2019-05-17T02:52:52.932Z,99.90
2019-05-17T02:55:23.315Z,99.90
2019-05-17T02:57:52.927Z,99.90
2019-05-17T03:00:23.878Z,99.90
2019-05-17T03:02:53.625Z,99.90
2019-05-17T03:05:23.267Z,99.90
2019-05-17T03:07:52.838Z,99.90
2019-05-17T03:10:27.558Z,99.90
2019-05-17T03:12:52.936Z,99.90
2019-05-17T03:15:23.427Z,99.90
2019-05-17T03:17:53.625Z,99.90
2019-05-17T03:20:23.189Z,99.90
2019-05-17T03:22:52.834Z,99.90
2019-05-17T03:25:23.824Z,99.90
2019-05-17T03:27:53.698Z,99.90
2019-05-17T03:30:25.792Z,99.90
2019-05-17T03:32:56.103Z,99.90
2019-05-17T03:35:26.433Z,99.90
2019-05-17T03:37:53.813Z,99.90
2019-05-17T03:40:46.317Z,99.90
2019-05-17T03:42:53.798Z,99.90
2019-05-17T03:45:22.970Z,99.90
2019-05-17T03:47:53.231Z,99.90
2019-05-17T03:50:22.687Z,99.90
2019-05-17T03:52:53.614Z,99.90
2019-05-17T03:55:23.550Z,99.90
2019-05-17T03:58:12.730Z,99.90
2019-05-17T04:00:42.805Z,99.90
2019-05-17T04:03:13.505Z,99.90
2019-05-17T04:05:42.898Z,99.90
2019-05-17T04:08:13.943Z,99.90
2019-05-17T04:10:42.693Z,99.90
2019-05-17T04:13:12.882Z,99.90
2019-05-17T04:15:43.387Z,99.90
2019-05-17T04:18:13.094Z,99.90
2019-05-17T04:21:03.447Z,99.90
2019-05-17T04:23:33.954Z,99.90
2019-05-17T04:26:04.140Z,99.90
2019-05-17T04:28:33.601Z,99.90
2019-05-17T04:31:02.918Z,99.90
2019-05-17T04:33:33.624Z,99.90
2019-05-17T04:36:02.805Z,99.90
2019-05-17T04:38:33.159Z,99.90
2019-05-17T04:41:03.262Z,99.90
2019-05-17T04:43:33.474Z,99.90
2019-05-17T04:46:02.999Z,99.90
2019-05-17T04:48:32.890Z,99.90
2019-05-17T04:51:02.733Z,99.90
2019-05-17T04:53:32.853Z,99.90
2019-05-17T04:56:03.144Z,99.90
2019-05-17T04:58:54.415Z,99.90
2019-05-17T05:01:23.612Z,99.90
2019-05-17T05:03:52.509Z,99.90
2019-05-17T05:06:23.368Z,99.90
2019-05-17T05:08:52.903Z,99.90
2019-05-17T05:11:23.274Z,99.90
2019-05-17T05:13:53.064Z,99.90
2019-05-17T05:16:22.589Z,99.90
2019-05-17T05:21:25.806Z,99.90
2019-05-17T05:23:54.368Z,99.90
2019-05-17T05:26:22.823Z,99.90
2019-05-17T05:28:52.863Z,99.90
2019-05-17T05:31:22.746Z,99.90
2019-05-17T05:33:58.707Z,99.90
2019-05-17T05:36:27.161Z,99.90
2019-05-17T05:38:55.627Z,99.90
2019-05-17T05:41:24.094Z,99.90
2019-05-17T05:43:52.770Z,99.90
2019-05-17T05:46:22.359Z,99.90
2019-05-17T05:49:01.742Z,99.90
2019-05-17T05:51:32.061Z,99.90
2019-05-17T05:54:01.668Z,99.90
2019-05-17T05:56:32.468Z,99.90
2019-05-17T05:59:02.712Z,99.90
2019-05-17T06:01:52.160Z,99.90
2019-05-17T06:04:22.291Z,99.90
2019-05-17T06:06:52.236Z,99.90
2019-05-17T06:09:22.353Z,99.90
2019-05-17T06:11:57.894Z,99.90
2019-05-17T06:14:26.384Z,99.90
2019-05-17T06:16:54.842Z,99.90
2019-05-17T06:19:23.317Z,99.90
2019-05-17T06:21:59.097Z,99.90
2019-05-17T06:24:27.579Z,99.90
2019-05-17T06:26:56.161Z,99.90
2019-05-17T06:29:24.687Z,99.90
2019-05-17T06:31:53.184Z,99.90
2019-05-17T06:34:22.294Z,99.90
2019-05-17T06:36:52.770Z,99.90
2019-05-17T06:39:22.415Z,99.90
2019-05-17T06:41:52.164Z,99.90
2019-05-17T06:44:21.606Z,99.90
2019-05-17T06:46:51.895Z,99.90
2019-05-17T06:49:22.419Z,99.90
2019-05-17T06:51:51.876Z,99.90
2019-05-17T06:54:21.572Z,99.90
2019-05-17T06:56:52.371Z,99.90
2019-05-17T06:59:20.482Z,99.90
2019-05-17T07:01:50.381Z,99.90
2019-05-17T07:04:19.371Z,99.90
2019-05-17T07:06:49.797Z,99.90
2019-05-17T07:09:19.489Z,99.90
2019-05-17T07:11:48.343Z,99.90
2019-05-17T07:14:16.823Z,99.90
2019-05-17T07:16:45.346Z,99.90
2019-05-17T07:19:13.844Z,99.90
2019-05-17T07:21:42.390Z,99.90
2019-05-17T07:24:19.554Z,99.90
2019-05-17T07:26:49.787Z,99.90
2019-05-17T07:29:19.364Z,99.90
2019-05-17T07:31:49.755Z,99.90
2019-05-17T07:34:19.958Z,99.90
2019-05-17T07:36:50.301Z,99.90
2019-05-17T07:39:20.455Z,99.90
2019-05-17T07:42:09.659Z,99.90
2019-05-17T07:45:10.106Z,99.90
2019-05-17T07:47:40.571Z,99.90
2019-05-17T07:50:21.834Z,99.90
2019-05-17T07:52:50.665Z,99.90
2019-05-17T07:55:22.884Z,99.90
2019-05-17T07:57:49.659Z,99.90
2019-05-17T08:00:20.353Z,99.90
2019-05-17T08:02:50.463Z,99.90
2019-05-17T08:05:40.281Z,99.90
2019-05-17T08:08:09.674Z,99.90
2019-05-17T08:10:40.930Z,99.90
2019-05-17T08:13:25.258Z,99.90
2019-05-17T08:15:39.852Z,99.90
2019-05-17T08:18:16.100Z,99.90
2019-05-17T08:20:44.559Z,99.90
2019-05-17T08:23:13.026Z,99.90
2019-05-17T08:25:52.621Z,99.90
2019-05-17T08:28:11.809Z,99.90
2019-05-17T08:30:41.149Z,99.90
2019-05-17T08:33:15.951Z,99.90
2019-05-17T08:35:44.437Z,99.90
2019-05-17T08:38:12.976Z,99.90
2019-05-17T08:40:41.738Z,99.90
2019-05-17T08:43:10.332Z,99.90
2019-05-17T08:45:40.672Z,99.90
2019-05-17T08:48:09.765Z,99.90
2019-05-17T08:50:40.393Z,99.90
2019-05-17T08:53:10.735Z,99.90
2019-05-17T08:55:40.791Z,99.90
2019-05-17T08:58:10.493Z,99.90
2019-05-17T09:00:40.540Z,99.90
2019-05-17T09:03:10.611Z,99.90
2019-05-17T09:05:41.852Z,99.90
2019-05-17T09:08:10.441Z,99.90
2019-05-17T09:10:40.740Z,99.90
2019-05-17T09:13:13.963Z,99.90
2019-05-17T09:15:40.445Z,99.90
2019-05-17T09:18:09.813Z,99.90
2019-05-17T09:20:40.669Z,99.90
2019-05-17T09:23:09.771Z,99.90
2019-05-17T09:25:59.559Z,99.90
2019-05-17T09:28:49.819Z,99.90
2019-05-17T09:31:17.595Z,99.90
2019-05-17T09:33:46.652Z,99.90
2019-05-17T09:36:15.132Z,99.90
2019-05-17T09:38:43.671Z,99.90
2019-05-17T09:41:12.209Z,99.90
2019-05-17T09:43:40.692Z,99.90
2019-05-17T09:46:10.628Z,99.90
2019-05-17T09:48:39.745Z,99.90
2019-05-17T09:51:10.487Z,99.90
2019-05-17T09:53:40.100Z,99.90
2019-05-17T09:56:30.170Z,99.90
2019-05-17T09:59:00.218Z,99.90
2019-05-17T10:01:30.320Z,99.90
2019-05-17T10:03:59.919Z,99.90
2019-05-17T10:06:28.480Z,99.90
2019-05-17T10:08:57.026Z,99.90
2019-05-17T10:11:25.527Z,99.90
2019-05-17T10:13:54.065Z,99.90
2019-05-17T10:16:22.601Z,99.90
2019-05-17T10:18:51.092Z,99.90
2019-05-17T10:21:19.981Z,99.90
2019-05-17T10:23:49.706Z,99.90
2019-05-17T10:26:19.722Z,99.90
2019-05-17T10:28:48.524Z,99.90
2019-05-17T10:31:17.064Z,99.90
2019-05-17T10:33:45.635Z,99.90
2019-05-17T10:36:14.227Z,99.90
2019-05-17T10:38:42.691Z,99.90
2019-05-17T10:41:11.160Z,99.90
2019-05-17T10:43:39.627Z,99.90
2019-05-17T10:46:10.356Z,99.90
2019-05-17T10:48:40.889Z,99.90
2019-05-17T10:51:09.634Z,99.90
2019-05-17T10:53:40.299Z,99.90
2019-05-17T10:56:10.036Z,99.90
2019-05-17T10:58:39.933Z,99.90
2019-05-17T11:01:10.247Z,99.90
2019-05-17T11:03:39.872Z,99.90
2019-05-17T11:06:10.938Z,99.90
2019-05-17T11:08:38.746Z,99.90
2019-05-17T11:11:07.312Z,99.90
2019-05-17T11:13:36.035Z,99.90
2019-05-17T11:16:04.567Z,99.90
2019-05-17T11:18:33.320Z,99.90
2019-05-17T11:21:01.862Z,99.90
2019-05-17T11:23:30.406Z,99.90
2019-05-17T11:25:58.954Z,99.90
2019-05-17T11:28:27.479Z,99.90
2019-05-17T11:30:55.934Z,99.90
2019-05-17T11:33:43.825Z,99.90
2019-05-17T11:36:12.309Z,99.90
2019-05-17T11:38:40.800Z,99.90
2019-05-17T11:41:28.662Z,99.90
2019-05-17T11:43:57.215Z,99.90
2019-05-17T11:46:35.666Z,99.90
2019-05-17T11:48:56.038Z,99.90
2019-05-17T11:51:27.239Z,99.90
2019-05-17T11:53:54.709Z,99.90
2019-05-17T11:56:23.182Z,99.90
2019-05-17T11:58:51.705Z,99.90
2019-05-17T12:01:20.176Z,99.90
2019-05-17T12:03:48.767Z,99.90
2019-05-17T12:06:17.561Z,99.90
2019-05-17T12:08:52.114Z,99.90
2019-05-17T12:11:20.936Z,99.90
2019-05-17T12:13:49.438Z,99.90
2019-05-17T12:16:17.888Z,99.90
2019-05-17T12:18:46.416Z,99.90
2019-05-17T12:21:14.979Z,99.90
2019-05-17T12:23:43.439Z,99.90
2019-05-17T12:26:11.963Z,99.90
2019-05-17T12:28:40.429Z,99.90
2019-05-17T12:31:08.980Z,99.90
2019-05-17T12:33:37.564Z,99.90
2019-05-17T12:36:06.282Z,99.90
2019-05-17T12:38:34.732Z,99.90
2019-05-17T12:41:03.238Z,99.90
2019-05-17T12:43:31.726Z,99.90
2019-05-17T12:46:01.686Z,99.90
2019-05-17T12:48:30.634Z,99.90
2019-05-17T12:50:59.468Z,99.90
2019-05-17T12:53:35.270Z,99.90
2019-05-17T12:56:03.818Z,99.90
2019-05-17T12:58:32.402Z,99.90
2019-05-17T13:01:00.895Z,99.90
2019-05-17T13:03:29.378Z,99.90
2019-05-17T13:05:57.830Z,99.90
2019-05-17T13:08:26.290Z,99.90
2019-05-17T13:10:54.751Z,99.90
2019-05-17T13:13:23.201Z,99.90
2019-05-17T13:15:51.673Z,99.90
2019-05-17T13:18:20.237Z,99.90
2019-05-17T13:20:48.795Z,99.90
2019-05-17T13:23:17.295Z,99.90
2019-05-17T13:25:46.307Z,99.90
2019-05-17T13:28:14.850Z,99.90
2019-05-17T13:30:43.321Z,96.90
2019-05-17T13:33:12.066Z,91.20
2019-05-17T13:35:40.543Z,83.30
2019-05-17T13:38:09.233Z,78.80
2019-05-17T13:40:48.209Z,76.00
2019-05-17T13:43:16.796Z,73.30
2019-05-17T13:45:45.740Z,71.60
2019-05-17T13:48:14.222Z,68.60
2019-05-17T13:50:42.703Z,65.20
2019-05-17T13:53:11.167Z,62.60
2019-05-17T13:55:39.632Z,60.10
2019-05-17T13:58:08.086Z,59.20
2019-05-17T14:00:36.548Z,58.70
2019-05-17T14:03:05.385Z,57.70
2019-05-17T14:05:33.978Z,57.70
2019-05-17T14:08:02.508Z,57.60
2019-05-17T14:10:32.269Z,58.30
2019-05-17T14:13:01.017Z,59.90
2019-05-17T14:15:29.482Z,61.60
2019-05-17T14:17:57.940Z,62.50
2019-05-17T14:20:26.481Z,61.20
2019-05-17T14:22:55.006Z,59.60
2019-05-17T14:25:23.483Z,61.40
2019-05-17T14:27:52.514Z,63.40
2019-05-17T14:30:21.056Z,66.60
2019-05-17T14:32:49.623Z,69.90
2019-05-17T14:35:18.149Z,69.00
2019-05-17T14:37:46.681Z,68.50
2019-05-17T14:40:16.973Z,69.00
2019-05-17T14:42:45.658Z,68.10
2019-05-17T14:45:14.668Z,69.70
2019-05-17T14:47:56.208Z,71.50
2019-05-17T14:50:24.739Z,72.40
2019-05-17T14:52:53.236Z,72.30
2019-05-17T14:55:21.695Z,73.20
2019-05-17T14:57:50.261Z,75.40
2019-05-17T15:00:19.032Z,77.30
2019-05-17T15:02:47.535Z,76.90
2019-05-17T15:05:16.334Z,76.40
2019-05-17T15:07:44.798Z,76.90
2019-05-17T15:10:14.070Z,76.90
2019-05-17T15:12:42.640Z,75.80
2019-05-17T15:15:12.999Z,74.50
2019-05-17T15:17:41.459Z,72.70
2019-05-17T15:20:10.268Z,71.10
2019-05-17T15:22:38.832Z,71.40
2019-05-17T15:25:08.039Z,72.20
2019-05-17T15:27:36.575Z,72.20
2019-05-17T15:30:09.685Z,73.70
2019-05-17T15:32:38.154Z,74.80
2019-05-17T15:35:07.615Z,76.60
2019-05-17T15:37:36.162Z,79.10
2019-05-17T15:40:06.231Z,80.00
2019-05-17T15:42:43.578Z,81.50
2019-05-17T15:45:07.651Z,81.90
2019-05-17T15:47:36.121Z,81.70
2019-05-17T15:50:06.795Z,81.60
2019-05-17T15:52:35.339Z,81.50
2019-05-17T15:55:05.429Z,80.90
2019-05-17T15:57:33.888Z,79.40
2019-05-17T16:00:02.731Z,80.30
2019-05-17T16:02:31.491Z,79.80
2019-05-17T16:04:59.941Z,78.70
2019-05-17T16:07:47.745Z,77.20
2019-05-17T16:10:17.038Z,75.00
2019-05-17T16:13:01.067Z,76.70
2019-05-17T16:15:15.756Z,77.60
2019-05-17T16:17:44.645Z,79.20
2019-05-17T16:20:16.847Z,79.30
2019-05-17T16:22:43.787Z,82.10
2019-05-17T16:25:12.507Z,82.80
2019-05-17T16:27:41.031Z,84.30
2019-05-17T16:30:10.684Z,84.50
2019-05-17T16:32:39.162Z,85.20
2019-05-17T16:35:08.847Z,86.60
2019-05-17T16:37:37.347Z,87.40
2019-05-17T16:40:07.423Z,88.00
2019-05-17T16:42:35.887Z,88.20
2019-05-17T16:45:06.760Z,88.50
2019-05-17T16:47:35.307Z,88.00
2019-05-17T16:50:06.225Z,88.20
2019-05-17T16:52:34.810Z,88.30
2019-05-17T16:55:04.719Z,89.00
2019-05-17T16:57:33.180Z,90.10
2019-05-17T17:00:01.669Z,90.50
2019-05-17T17:02:30.256Z,90.80
2019-05-17T17:04:58.715Z,91.40
2019-05-17T17:07:27.375Z,92.00
2019-05-17T17:09:55.844Z,92.30
2019-05-17T17:12:24.367Z,92.50
2019-05-17T17:14:52.843Z,93.10
2019-05-17T17:17:21.369Z,93.70
2019-05-17T17:19:49.852Z,94.00
2019-05-17T17:22:18.382Z,94.30
2019-05-17T17:24:46.856Z,95.00
2019-05-17T17:27:15.408Z,96.00
2019-05-17T17:29:43.936Z,96.20
2019-05-17T17:32:31.811Z,96.80
2019-05-17T17:35:00.284Z,97.30
2019-05-17T17:37:28.895Z,97.70
2019-05-17T17:39:57.693Z,98.30
2019-05-17T17:42:26.138Z,98.70
2019-05-17T17:44:55.215Z,99.00
2019-05-17T17:47:23.917Z,99.40
2019-05-17T17:49:52.405Z,99.70
2019-05-17T17:52:20.882Z,99.90
2019-05-17T17:54:49.338Z,99.90
2019-05-17T17:57:17.804Z,99.90
2019-05-17T17:59:46.279Z,99.90
2019-05-17T18:02:14.759Z,99.90
2019-05-17T18:05:02.866Z,99.90
2019-05-17T18:07:50.886Z,99.90
2019-05-17T18:10:31.394Z,99.90
2019-05-17T18:13:00.365Z,99.90
2019-05-17T18:15:37.991Z,99.90
2019-05-17T18:18:06.540Z,99.90
2019-05-17T18:20:35.067Z,99.90
2019-05-17T18:23:03.976Z,99.90
2019-05-17T18:25:32.588Z,99.90
2019-05-17T18:28:01.186Z,99.90
2019-05-17T18:30:29.720Z,99.90
2019-05-17T18:32:58.252Z,99.90
2019-05-17T18:35:26.948Z,99.90
2019-05-17T18:37:55.415Z,99.90
2019-05-17T18:40:23.957Z,99.90
2019-05-17T18:42:52.910Z,99.90
2019-05-17T18:45:21.917Z,99.90
2019-05-17T18:47:50.662Z,99.90
2019-05-17T18:50:23.113Z,99.90
2019-05-17T18:52:51.799Z,99.90
2019-05-17T18:55:20.413Z,99.90
2019-05-17T18:57:48.953Z,99.90
2019-05-17T19:00:19.574Z,99.90
2019-05-17T19:02:48.035Z,99.90
2019-05-17T19:05:18.158Z,99.90
2019-05-17T19:07:46.628Z,99.90
2019-05-17T19:10:15.835Z,99.90
2019-05-17T19:12:44.295Z,99.90
2019-05-17T19:15:13.797Z,99.90
2019-05-17T19:17:42.322Z,99.90
2019-05-17T19:20:11.417Z,99.90
2019-05-17T19:22:39.946Z,99.90
2019-05-17T19:25:09.751Z,99.90
2019-05-17T19:27:38.303Z,99.90
2019-05-17T19:30:08.893Z,99.90
2019-05-17T19:32:43.121Z,99.90
2019-05-17T19:35:12.190Z,99.90
2019-05-17T19:37:40.692Z,99.90
2019-05-17T19:40:09.895Z,99.90
2019-05-17T19:42:38.369Z,99.90
2019-05-17T19:45:09.753Z,99.90
2019-05-17T19:47:38.386Z,99.90
2019-05-17T19:50:08.944Z,99.90
2019-05-17T19:52:37.536Z,99.90
2019-05-17T19:55:09.946Z,99.90
2019-05-17T19:57:38.516Z,99.90
2019-05-17T20:00:08.891Z,99.90
2019-05-17T20:02:37.360Z,99.90
2019-05-17T20:05:06.267Z,99.90
2019-05-17T20:07:38.674Z,99.90
2019-05-17T20:10:09.382Z,99.90
2019-05-17T20:12:37.927Z,99.90
2019-05-17T20:15:17.266Z,99.90
2019-05-17T20:17:38.898Z,99.90
2019-05-17T20:20:08.103Z,99.90
2019-05-17T20:22:36.823Z,99.90
2019-05-17T20:25:06.403Z,99.90
2019-05-17T20:27:35.134Z,99.90
2019-05-17T20:30:06.362Z,99.90
2019-05-17T20:32:34.949Z,99.90
2019-05-17T20:35:04.550Z,99.90
2019-05-17T20:37:33.044Z,99.90
2019-05-17T20:40:01.544Z,99.90
2019-05-17T20:42:30.026Z,99.90
2019-05-17T20:44:58.554Z,99.90
2019-05-17T20:47:27.013Z,99.90
2019-05-17T20:50:08.349Z,99.90
2019-05-17T20:52:36.916Z,99.90
2019-05-17T20:55:06.011Z,99.90
2019-05-17T20:57:34.676Z,99.90
2019-05-17T21:00:05.401Z,99.90
2019-05-17T21:02:33.917Z,99.90
2019-05-17T21:05:02.529Z,99.90
2019-05-17T21:07:31.048Z,99.90
2019-05-17T21:09:59.513Z,99.90
2019-05-17T21:12:27.994Z,99.90
2019-05-17T21:14:56.698Z,99.90
2019-05-17T21:17:25.419Z,99.90
2019-05-17T21:19:53.883Z,99.90
2019-05-17T21:22:22.354Z,99.90
2019-05-17T21:24:50.825Z,99.90
2019-05-17T21:27:19.399Z,99.90
2019-05-17T21:29:47.943Z,99.90
2019-05-17T21:32:16.428Z,99.90
2019-05-17T21:34:44.995Z,99.90
2019-05-17T21:37:20.598Z,99.90
2019-05-17T21:39:49.141Z,99.90
2019-05-17T21:42:17.616Z,99.90
2019-05-17T21:44:46.147Z,99.90
2019-05-17T21:47:14.616Z,99.90
2019-05-17T21:49:43.099Z,99.90
2019-05-17T21:52:11.960Z,99.90
2019-05-17T21:54:40.426Z,99.90
2019-05-17T21:57:08.958Z,99.90
2019-05-17T21:59:37.422Z,99.90
2019-05-17T22:02:05.925Z,99.90
2019-05-17T22:04:34.461Z,99.90
2019-05-17T22:07:03.019Z,99.90
2019-05-17T22:09:31.559Z,99.90
2019-05-17T22:12:01.728Z,99.90
2019-05-17T22:14:30.248Z,99.90
2019-05-17T22:16:58.711Z,99.90
2019-05-17T22:19:27.216Z,99.90
2019-05-17T22:21:55.665Z,99.90
2019-05-17T22:24:24.126Z,99.90
2019-05-17T22:26:52.634Z,99.90
2019-05-17T22:29:21.094Z,99.90
2019-05-17T22:31:49.565Z,99.90
2019-05-17T22:34:18.055Z,99.90
2019-05-17T22:37:05.854Z,99.90
2019-05-17T22:39:34.321Z,99.90
2019-05-17T22:42:03.226Z,99.90
2019-05-17T22:44:31.762Z,99.90
2019-05-17T22:47:00.267Z,99.90
2019-05-17T22:49:28.796Z,99.90
2019-05-17T22:51:57.511Z,99.90
2019-05-17T22:54:26.615Z,99.90
2019-05-17T22:57:02.332Z,99.90
2019-05-17T22:59:30.892Z,99.90
2019-05-17T23:01:59.362Z,99.90
2019-05-17T23:04:38.490Z,99.90
2019-05-17T23:07:07.180Z,99.90
2019-05-17T23:09:35.649Z,99.90
2019-05-17T23:12:04.299Z,99.90
2019-05-17T23:14:32.763Z,99.90
2019-05-17T23:17:01.231Z,99.90
2019-05-17T23:19:40.203Z,99.90
2019-05-17T23:22:08.676Z,99.90
2019-05-17T23:24:37.212Z,99.90
2019-05-17T23:27:05.728Z,99.90
2019-05-17T23:29:34.340Z,99.90
2019-05-17T23:32:02.804Z,99.90
2019-05-17T23:34:31.334Z,99.90
2019-05-17T23:36:59.877Z,99.90
2019-05-17T23:39:28.360Z,99.90
2019-05-17T23:41:57.001Z,99.90
2019-05-17T23:44:25.552Z,99.90
2019-05-17T23:47:06.243Z,99.90
2019-05-17T23:49:24.590Z,99.90
2019-05-17T23:51:53.136Z,99.90
2019-05-17T23:54:21.653Z,99.90
2019-05-17T23:56:50.181Z,99.90
2019-05-17T23:59:18.674Z,99.90
